Kezdőlap
METAR-TAF:

METAR-TAF

Repülőterek :

Kuvaitváros, Kuvait

földrajzi szélesség: 29-13N, földrajzi hosszúság: 047-59E, magasság: 55 m

Jelenlegi meteorológiai megfigyelések

A jelentés 46 perccel ezelõtt készült, 22:00 UTC
Szélcsend
Hőmérséklet 7°C
Páratartalom 61%
Légköri nyomás 1022 hPa
Látótávolság 10 km, vagy több
felhőtlen 1500 m magasságban, és nincs gomolyfelhõ

METAR: OKBK 182200Z 00000KT CAVOK 07/M00 Q1022 NOSIG

Idő: 01:46 (22:46 UTC)

Előrejelzés

A jelentés 6 órával és 1 perccel ezelõtt készült, 16:45 UTC
Az előrejelzés 18-én 18 óra UTC és 19-én 24 óra UTC között érvényes
Északi szél 10 kt
Látótávolság: 6000 m
Derült ég

TAF: OKBK 181645Z 1818/1924 35010KT 6000 SKC

Meteorológiai megfigyelések és előrejelzések több, mint 4000 repülőtéren (METAR és TAF jelentéseket).

A térképen piros és sárga pontok jelzik az elérhető meteorológiai állomásokat.

Mozgassa az egeret a pont fölött, hogy megjelenjen az állomás neve.

Azután kattintson az időjárási megfigyelések és előrejelzések megtekintéséhez.

A térkép megváltoztatása: kattintson a fekete keresztel jelölt zöld gombra ráközelítéshez, a vonallal jelölt zöld gombra távolításhoz, vagy a zöld nyilakra a szomszédos térképek eléréséhez.


METAR-TAF: